Latest Weather Observations for Hervey Bay

IDQ60801

Issued at 6:32 am EST Saturday 30 May 2015 (issued every 30 minutes, with the page automatically refreshed every 10 minutes)

About weather observations | Map of weather stations | Latest weather observations for QLD | Other Formats
Station Details ID: 040405 Name: HERVEY BAY AIRPORT Lat: -25.32 Lon: 152.88 Height: 12.98 m
Data from the previous 72 hours. | See also: Recent months at Hervey Bay
Date/Time
EST
Temp
°C
App
Temp
°C
Dew
Point
Rel
Hum
%
Delta-T
°C
Wind Press
QNH
hPa
Press
MSL
hPa
Rain
since 9 am
mm
Dir
 
Spd
km/h
Gust
km/h
Spd
kts
Gust
kts
30/05:36am 14.4 15.5 13.6 95 0.4 CALM 0 0 0 0 1021.9 1021.8 0.0
30/05:35am 14.3 15.4 13.5 95 0.4 CALM 0 0 0 0 1021.9 1021.8 0.0
30/05:30am 14.3 15.3 13.3 94 0.6 CALM 0 0 0 0 1021.8 1021.7 0.0
30/05:10am 14.6 15.7 13.6 94 0.6 CALM 0 0 0 0 1021.6 1021.5 0.0
30/05:00am 15.0 16.0 14.2 95 0.5 SSW 2 6 1 3 1021.5 1021.4 0.0
30/04:30am 15.5 15.7 14.7 95 0.5 SSW 7 9 4 5 1021.3 1021.2 0.0
30/04:13am 15.4 16.1 14.6 95 0.5 SW 4 7 2 4 1021.2 1021.1 0.0
30/04:11am 15.5 15.9 14.7 95 0.5 SW 6 7 3 4 1021.2 1021.1 0.0
30/04:00am 15.8 16.4 15.2 96 0.3 SSW 6 7 3 4 1021.2 1021.1 0.0
30/03:30am 16.0 16.7 15.5 97 0.3 SW 6 7 3 4 1021.4 1021.3 0.0
30/03:00am 15.8 16.2 15.3 97 0.3 SSW 7 11 4 6 1021.5 1021.4 0.0
30/02:30am 14.5 15.3 13.7 95 0.4 SSW 2 6 1 3 1021.4 1021.3 0.0
30/02:20am 14.5 14.5 13.7 95 0.4 SSW 6 7 3 4 1021.6 1021.5 0.0
30/02:04am 14.1 13.9 13.1 94 0.6 SSW 6 7 3 4 1021.7 1021.6 0.0
30/02:00am 14.1 13.9 13.1 94 0.5 SSW 6 7 3 4 1021.7 1021.6 0.0
30/01:30am 14.2 15.2 13.2 94 0.6 CALM 0 0 0 0 1022.1 1022.0 0.0
30/01:00am 14.3 15.3 13.2 93 0.6 CALM 0 0 0 0 1022.2 1022.1 0.0
30/12:53am 14.3 15.3 13.2 93 0.6 CALM 0 0 0 0 1022.3 1022.2 0.0
30/12:35am 14.6 15.7 13.6 94 0.6 CALM 0 0 0 0 1022.5 1022.4 0.0
30/12:30am 14.6 15.7 13.5 93 0.6 CALM 0 0 0 0 1022.5 1022.4 0.0
30/12:00am 14.6 15.7 13.5 93 0.6 CALM 0 0 0 0 1022.5 1022.4 0.0
 
Date/Time
EST
Temp
°C
App
Temp
°C
Dew
Point
Rel
Hum
%
Delta-T
°C
Wind Press
QNH
hPa
Press
MSL
hPa
Rain
since 9 am
mm
Dir
 
Spd
km/h
Gust
km/h
Spd
kts
Gust
kts
29/11:30pm 15.0 16.2 13.9 93 0.6 CALM 0 0 0 0 1022.8 1022.7 0.0
29/11:00pm 15.1 16.4 14.0 93 0.6 CALM 0 0 0 0 1023.0 1022.9 0.0
29/10:30pm 15.3 16.6 14.2 93 0.6 CALM 0 0 0 0 1023.0 1022.9 0.0
29/10:00pm 15.7 17.2 14.6 93 0.6 CALM 0 0 0 0 1023.1 1023.0 0.0
29/09:30pm 15.7 17.1 14.4 92 0.7 CALM 0 0 0 0 1023.0 1022.9 0.0
29/09:00pm 16.0 17.5 14.7 92 0.7 CALM 0 0 0 0 1023.0 1022.9 0.0
29/08:30pm 16.5 18.1 15.0 91 0.9 CALM 0 0 0 0 1023.0 1022.9 0.0
29/08:00pm 16.9 18.7 15.4 91 0.9 CALM 0 0 0 0 1023.0 1022.9 0.0
29/07:30pm 17.2 19.1 15.7 91 0.9 CALM 0 0 0 0 1023.1 1023.0 0.0
29/07:00pm 17.3 19.1 15.6 90 1.0 CALM 0 0 0 0 1022.8 1022.7 0.0
29/06:30pm 18.3 19.0 16.1 87 1.3 NE 7 9 4 5 1022.6 1022.5 0.0
29/06:00pm 18.8 20.4 16.0 84 1.7 NE 2 6 1 3 1022.3 1022.2 0.0
29/05:30pm 20.7 21.9 16.9 79 2.3 NNE 6 7 3 4 1021.9 1021.8 0.0
29/05:00pm 22.1 22.7 16.8 72 3.2 NE 9 11 5 6 1021.8 1021.7 0.0
29/04:30pm 23.6 24.2 16.9 66 4.1 NNE 9 11 5 6 1021.7 1021.6 0.0
29/04:00pm 24.1 24.2 16.4 62 4.7 NNE 11 13 6 7 1021.4 1021.3 0.0
29/03:30pm 24.9 24.6 15.5 56 5.7 NNE 11 15 6 8 1021.3 1021.2 0.0
29/03:00pm 25.4 26.0 15.7 55 5.9 N 7 11 4 6 1021.1 1021.0 0.0
29/02:30pm 25.3 25.3 16.2 57 5.6 N 11 15 6 8 1021.2 1021.1 0.0
29/02:00pm 25.4 25.2 15.7 55 5.9 N 11 15 6 8 1021.5 1021.4 0.0
29/01:30pm 25.7 26.0 16.0 55 5.9 N 9 15 5 8 1021.5 1021.4 0.0
29/01:00pm 25.5 25.6 16.4 57 5.6 N 11 15 6 8 1021.6 1021.5 0.0
29/12:30pm 25.2 25.5 16.1 57 5.6 N 9 13 5 7 1022.1 1022.0 0.0
29/12:00pm 25.1 25.7 16.8 60 5.1 N 9 17 5 9 1022.5 1022.4 0.0
29/11:30am 24.8 25.7 17.5 64 4.6 N 9 13 5 7 1022.9 1022.8 0.0
29/11:00am 23.8 25.3 17.5 68 3.9 NNW 6 11 3 6 1023.0 1022.9 0.0
29/10:30am 23.4 25.0 17.8 71 3.5 NW 6 9 3 5 1023.7 1023.6 0.0
29/10:00am 22.8 23.8 17.7 73 3.2 SSW 9 13 5 7 1024.0 1023.9 0.0
29/09:30am 21.8 23.0 18.2 80 2.2 SSW 9 13 5 7 1024.2 1024.1 0.0
29/09:00am 19.8 21.0 17.4 86 1.5 SW 7 11 4 6 1024.2 1024.1 0.0
29/08:30am 18.3 18.8 16.6 90 1.0 SSW 9 11 5 6 1024.1 1024.0 0.0
29/08:00am 17.4 18.1 16.1 92 0.8 SSW 7 11 4 6 1024.0 1023.9 0.0
29/07:42am 17.0 17.3 16.0 94 0.6 SW 9 13 5 7 1023.8 1023.7 0.0
29/07:30am 16.6 16.7 15.6 94 0.6 SSW 9 11 5 6 1023.8 1023.7 0.0
29/07:00am 16.0 16.1 15.4 96 0.3 SW 9 15 5 8 1023.7 1023.6 0.0
29/06:30am 15.6 15.5 15.0 96 0.3 SSW 9 11 5 6 1023.5 1023.4 0.0
29/06:00am 15.6 15.9 15.0 96 0.3 SW 7 11 4 6 1023.1 1023.0 0.0
29/05:30am 15.6 15.9 15.0 96 0.3 SSW 7 11 4 6 1022.5 1022.4 0.0
29/05:00am 15.7 16.2 14.9 95 0.5 SW 6 9 3 5 1022.4 1022.3 0.0
29/04:42am 15.8 16.1 15.0 95 0.5 SSW 7 9 4 5 1022.3 1022.2 0.0
29/04:30am 16.0 16.1 15.4 96 0.3 SW 9 11 5 6 1022.4 1022.3 0.0
29/04:00am 16.1 16.6 15.5 96 0.3 SW 7 11 4 6 1022.3 1022.2 0.0
29/03:30am 15.8 16.2 15.2 96 0.3 WSW 7 9 4 5 1022.4 1022.3 0.0
29/03:00am 15.7 16.5 14.9 95 0.5 SW 4 6 2 3 1022.6 1022.5 0.0
29/02:54am 15.6 16.0 14.8 95 0.5 SW 6 7 3 4 1022.7 1022.6 0.0
29/02:30am 15.7 16.2 14.9 95 0.5 SW 6 7 3 4 1022.6 1022.5 0.0
29/02:23am 15.7 16.2 14.9 95 0.5 SW 6 7 3 4 1022.6 1022.5 0.0
29/02:00am 15.6 16.0 14.8 95 0.5 SSW 6 7 3 4 1022.7 1022.6 0.0
29/01:30am 16.0 16.6 15.2 95 0.5 SW 6 7 3 4 1022.8 1022.7 0.0
29/01:00am 16.4 16.9 15.6 95 0.5 SSW 7 11 4 6 1023.0 1022.9 0.0
29/12:30am 16.5 16.4 15.9 96 0.4 SSW 11 13 6 7 1023.2 1023.1 0.0
29/12:00am 16.0 16.3 15.0 94 0.6 SSW 7 9 4 5 1023.2 1023.1 0.0
 
Date/Time
EST
Temp
°C
App
Temp
°C
Dew
Point
Rel
Hum
%
Delta-T
°C
Wind Press
QNH
hPa
Press
MSL
hPa
Rain
since 9 am
mm
Dir
 
Spd
km/h
Gust
km/h
Spd
kts
Gust
kts
28/11:30pm 16.3 17.0 15.5 95 0.5 SSW 6 9 3 5 1023.3 1023.2 0.0
28/11:00pm 16.5 17.1 15.9 96 0.4 SSW 7 7 4 4 1023.4 1023.3 0.0
28/10:30pm 15.5 15.7 14.7 95 0.5 SSW 7 9 4 5 1023.6 1023.5 0.0
28/10:00pm 15.0 16.3 14.0 94 0.6 CALM 0 6 0 3 1023.6 1023.5 0.0
28/09:30pm 15.3 16.6 14.2 93 0.6 CALM 0 0 0 0 1023.7 1023.6 0.0
28/09:00pm 15.5 16.9 14.4 93 0.6 CALM 0 0 0 0 1023.6 1023.5 0.0
28/08:30pm 15.5 16.8 14.0 91 0.8 CALM 0 0 0 0 1023.5 1023.4 0.0
28/08:00pm 16.1 17.7 14.8 92 0.7 CALM 0 0 0 0 1023.6 1023.5 0.0
28/07:30pm 16.3 17.9 15.0 92 0.8 CALM 0 0 0 0 1023.2 1023.1 0.0
28/07:00pm 16.7 17.6 15.1 90 0.9 SSE 4 7 2 4 1022.8 1022.7 0.0
28/06:30pm 17.7 19.1 15.5 87 1.3 SSE 2 6 1 3 1022.4 1022.3 0.0
28/06:00pm 18.7 19.5 16.3 86 1.4 SE 7 11 4 6 1022.2 1022.1 0.0
28/05:30pm 19.7 20.8 16.5 82 1.9 SE 6 9 3 5 1021.8 1021.7 0.0
28/05:00pm 20.7 21.1 16.3 76 2.6 SE 9 13 5 7 1021.8 1021.7 0.0
28/04:30pm 21.5 21.4 16.9 75 2.8 ESE 13 17 7 9 1021.6 1021.5 0.0
28/04:00pm 22.3 21.4 16.8 71 3.4 ESE 17 24 9 13 1021.5 1021.4 0.0
28/03:30pm 22.9 22.2 17.4 71 3.4 ESE 17 22 9 12 1021.5 1021.4 0.0
28/03:00pm 23.3 22.0 16.8 67 4.0 SE 19 26 10 14 1021.2 1021.1 0.0
28/02:30pm 23.8 23.0 17.1 66 4.1 ESE 17 24 9 13 1021.2 1021.1 0.0
28/02:00pm 24.2 23.7 15.9 59 5.0 E 13 20 7 11 1021.6 1021.5 0.0
28/01:30pm 24.0 23.5 16.8 64 4.4 ESE 15 22 8 12 1021.4 1021.3 0.0
28/01:00pm 24.4 24.8 18.1 68 3.9 SE 13 24 7 13 1021.6 1021.5 0.0
28/12:30pm 24.1 24.0 16.9 64 4.4 SSE 13 17 7 9 1022.1 1022.0 0.0
28/12:00pm 23.7 23.0 16.5 64 4.4 SSE 15 20 8 11 1022.8 1022.7 0.0
28/11:30am 23.7 22.7 16.7 65 4.3 SE 17 22 9 12 1023.0 1022.9 0.0
28/11:00am 23.3 23.7 17.3 69 3.7 SSE 11 19 6 10 1023.2 1023.1 0.0
28/10:30am 23.2 23.2 17.2 69 3.7 SE 13 24 7 13 1023.5 1023.4 0.0
28/10:00am 22.2 22.4 16.7 71 3.3 S 11 15 6 8 1023.7 1023.6 0.0
28/09:30am 21.4 21.9 17.4 78 2.5 SSW 11 15 6 8 1023.7 1023.6 0.0
28/09:00am 20.4 21.3 17.6 84 1.7 S 9 15 5 8 1023.6 1023.5 0.0
28/08:30am 18.7 18.9 16.8 89 1.1 SSW 11 15 6 8 1023.8 1023.7 0.0
28/08:00am 17.1 16.9 15.8 92 0.8 SSW 11 15 6 8 1023.4 1023.3 0.0
28/07:30am 16.4 16.0 15.3 93 0.6 SW 11 15 6 8 1023.3 1023.2 0.0
28/07:25am 16.4 15.7 15.4 94 0.6 SW 13 17 7 9 1023.4 1023.3 0.0
28/07:00am 15.7 14.8 14.9 95 0.5 SSW 13 15 7 8 1023.0 1022.9 0.0
28/06:30am 15.2 14.9 14.4 95 0.5 SSW 9 11 5 6 1022.4 1022.3 0.0
28/06:00am 15.2 15.3 14.4 95 0.5 SW 7 11 4 6 1022.3 1022.2 0.0
28/05:30am 15.5 14.9 14.7 95 0.5 SSW 11 15 6 8 1022.1 1022.0 0.0
28/05:13am 15.6 15.1 14.8 95 0.5 SW 11 15 6 8 1022.1 1022.0 0.0
28/05:00am 15.7 15.2 14.9 95 0.5 SW 11 13 6 7 1022.3 1022.2 0.0
28/04:30am 15.9 15.9 15.1 95 0.5 SSW 9 13 5 7 1021.6 1021.5 0.0
28/04:00am 16.0 16.0 15.2 95 0.5 SW 9 15 5 8 1021.8 1021.7 0.0
28/03:30am 16.1 16.5 15.3 95 0.5 SSW 7 9 4 5 1021.6 1021.5 0.0
28/03:00am 16.5 18.0 15.7 95 0.5 SW 2 6 1 3 1021.5 1021.4 0.0
28/02:30am 16.7 17.5 15.9 95 0.5 SW 6 9 3 5 1021.4 1021.3 0.0
28/02:00am 16.8 17.5 16.0 95 0.5 SSW 7 9 4 5 1021.4 1021.3 0.0
28/01:30am 17.2 17.6 16.4 95 0.5 SSW 9 13 5 7 1022.1 1022.0 0.0
28/01:00am 17.5 18.1 16.7 95 0.5 SSW 9 13 5 7 1022.3 1022.2 0.0
28/12:30am 17.4 18.5 16.6 95 0.5 SSW 6 7 3 4 1022.3 1022.2 0.0
28/12:00am 16.9 18.5 15.9 94 0.6 NNW 2 9 1 5 1022.2 1022.1 0.0
 
Date/Time
EST
Temp
°C
App
Temp
°C
Dew
Point
Rel
Hum
%
Delta-T
°C
Wind Press
QNH
hPa
Press
MSL
hPa
Rain
since 9 am
mm
Dir
 
Spd
km/h
Gust
km/h
Spd
kts
Gust
kts
27/11:30pm 17.1 19.1 16.1 94 0.6 CALM 0 4 0 2 1022.5 1022.4 0.0
27/11:00pm 17.0 17.7 16.2 95 0.5 SSW 7 11 4 6 1023.0 1022.9 0.0
27/10:30pm 17.0 17.3 16.0 94 0.6 SSW 9 9 5 5 1023.1 1023.0 0.0
27/10:00pm 17.2 18.5 16.1 93 0.6 NNW 4 7 2 4 1022.7 1022.6 0.0
27/09:30pm 16.7 17.7 15.4 92 0.8 SSW 4 7 2 4 1022.5 1022.4 0.0
27/09:00pm 17.4 18.1 16.1 92 0.8 SSW 7 9 4 5 1022.6 1022.5 0.0
27/08:30pm 17.8 18.4 16.7 93 0.7 S 9 9 5 5 1022.6 1022.5 0.0
27/08:00pm 17.4 18.1 16.1 92 0.8 SSW 7 7 4 4 1022.7 1022.6 0.0
27/07:30pm 18.1 19.0 16.1 88 1.2 SSE 6 7 3 4 1022.6 1022.5 0.0
27/07:00pm 19.0 19.6 16.8 87 1.3 SE 9 11 5 6 1022.2 1022.1 0.0
27/06:30pm 18.9 19.8 16.7 87 1.3 SE 7 9 4 5 1022.1 1022.0 0.0
27/06:00pm 19.0 19.7 16.2 84 1.7 SSE 7 9 4 5 1022.0 1021.9 0.0
27/05:30pm 19.3 20.2 16.5 84 1.7 SE 7 11 4 6 1021.4 1021.3 0.0
27/05:00pm 20.0 20.5 16.6 81 2.0 SE 9 11 5 6 1021.4 1021.3 0.0
27/04:30pm 21.1 21.2 16.5 75 2.8 SE 11 17 6 9 1021.4 1021.3 0.0
27/04:00pm 22.1 22.0 17.0 73 3.1 SE 13 20 7 11 1020.9 1020.8 0.0
27/03:30pm 22.5 21.8 16.3 68 3.8 SE 15 20 8 11 1020.9 1020.8 0.0
27/03:00pm 22.3 22.1 16.6 70 3.5 SE 13 19 7 10 1020.8 1020.7 0.0
27/02:30pm 23.0 22.7 16.5 67 4.0 SE 13 19 7 10 1020.8 1020.7 0.0
27/02:00pm 23.1 22.9 16.6 67 4.0 ESE 13 19 7 10 1021.0 1020.9 0.0
27/01:30pm 23.1 22.7 17.1 69 3.7 ESE 15 19 8 10 1021.1 1021.0 0.0
27/01:00pm 23.7 23.2 17.7 69 3.7 E 17 24 9 13 1021.4 1021.3 0.0
27/12:30pm 22.4 23.0 16.7 70 3.5 SSE 9 15 5 8 1022.1 1022.0 0.0
27/12:00pm 23.6 24.0 17.3 67 3.9 SSE 11 17 6 9 1022.6 1022.5 0.0
27/11:30am 22.0 22.8 17.2 74 2.9 SSE 9 15 5 8 1023.1 1023.0 0.0
27/11:00am 22.0 22.3 16.9 73 3.1 S 11 17 6 9 1023.4 1023.3 0.0
27/10:30am 21.6 22.2 17.6 78 2.5 SSW 11 17 6 9 1023.5 1023.4 0.0
27/10:00am 21.1 21.3 17.7 81 2.1 SSW 13 19 7 10 1023.7 1023.6 0.0
27/09:30am 19.8 19.6 17.6 87 1.3 SSW 15 19 8 10 1024.0 1023.9 0.0
27/09:00am 18.6 18.6 17.1 91 0.9 SSW 13 17 7 9 1024.2 1024.1 3.4
27/08:30am 17.2 16.8 16.1 93 0.7 SSW 13 17 7 9 1024.2 1024.1 3.4
27/08:00am 16.7 16.1 15.6 93 0.6 SSW 13 17 7 9 1024.0 1023.9 3.4
27/07:30am 16.0 15.1 14.9 93 0.6 SSW 13 17 7 9 1023.7 1023.6 3.4
27/07:00am 15.3 15.1 14.7 96 0.3 SW 9 13 5 7 1023.3 1023.2 3.4

Other Formats:

Comma delimited format used in spreadsheet applications
http://www.bom.gov.au/fwo/IDQ60801/IDQ60801.95565.axf

JavaScript Object Notation format (JSON) in row-major order
http://www.bom.gov.au/fwo/IDQ60801/IDQ60801.95565.json